EPWR

Copernicus Wrocław Airport

Wrocław, Poland

TAF EPWR 180530Z 1806/1906 20006KT CAVOK PROB30 TEMPO 1811/1817 SCT045CB BECMG 1900/1903 28010KT TEMPO 1901/1906 4000 SHRA BKN013 BKN022CB

Issued Valid From Valid To
Aug-18 @ 05:30 UTC
(3 hours ago)
Aug-18 @ 06:00 UTC
(3 hours ago)
Aug-19 @ 06:00 UTC
(in 21 hours)
Aug-18 @ 06:00 - Aug-19 @ 00:00
Wind Visibility Clouds Conditions
200° at 6 knots
  • No significant clouds
Probability 30% Temporary Aug-18 @ 11:00 - Aug-18 @ 17:00
Clouds
  • Scattered at 4,500' AGL
Becoming Aug-19 @ 00:00 - Aug-19 @ 06:00
Wind Visibility Clouds Conditions
280° at 10 knots
  • No significant clouds
Temporary Aug-19 @ 01:00 - Aug-19 @ 06:00
Visibility Clouds Conditions
  • Broken at 1,300' AGL
  • Broken at 2,200' AGL
  • Rain
Issued Aug-18 @ 05:30 UTC
(3 hours ago)
Valid From Aug-18 @ 06:00 UTC
(3 hours ago)
Valid To Aug-19 @ 06:00 UTC
(in 21 hours)
Aug-18 @ 06:00 - Aug-19 @ 00:00
Wind Visibility
200° at 6 knots 10,000+ meters
Clouds Conditions
  • No significant clouds
Probability 30% Temporary Aug-18 @ 11:00 - Aug-18 @ 17:00
Clouds
  • Scattered at 4,500' AGL
Becoming Aug-19 @ 00:00 - Aug-19 @ 06:00
Wind Visibility
280° at 10 knots 10,000+ meters
Clouds Conditions
  • No significant clouds
Temporary Aug-19 @ 01:00 - Aug-19 @ 06:00
Clouds Conditions
  • Broken at 1,300' AGL
  • Broken at 2,200' AGL
  • Rain